sensor_id;sensor_type;location;lat;lon;timestamp;P1;durP1;ratioP1;P2;durP2;ratioP2
5285;SDS011;2665;53.112;7.358;2024-01-16T00:01:53;1.60;;;0.50;;
5285;SDS011;2665;53.112;7.358;2024-01-16T00:04:19;3.43;;;0.90;;
5285;SDS011;2665;53.112;7.358;2024-01-16T00:06:45;2.73;;;0.60;;
5285;SDS011;2665;53.112;7.358;2024-01-16T00:09:11;3.30;;;0.57;;
5285;SDS011;2665;53.112;7.358;2024-01-16T00:11:44;1.70;;;0.50;;
5285;SDS011;2665;53.112;7.358;2024-01-16T00:14:10;2.37;;;0.70;;
5285;SDS011;2665;53.112;7.358;2024-01-16T00:16:43;1.83;;;0.53;;
5285;SDS011;2665;53.112;7.358;2024-01-16T00:19:10;2.50;;;0.50;;
5285;SDS011;2665;53.112;7.358;2024-01-16T00:21:40;2.53;;;0.60;;
5285;SDS011;2665;53.112;7.358;2024-01-16T00:24:06;4.20;;;0.70;;
5285;SDS011;2665;53.112;7.358;2024-01-16T00:26:32;2.60;;;0.60;;
5285;SDS011;2665;53.112;7.358;2024-01-16T00:28:59;3.83;;;0.80;;
5285;SDS011;2665;53.112;7.358;2024-01-16T00:31:25;2.17;;;0.80;;
5285;SDS011;2665;53.112;7.358;2024-01-16T00:33:52;2.03;;;0.60;;
5285;SDS011;2665;53.112;7.358;2024-01-16T00:36:18;2.40;;;1.07;;
5285;SDS011;2665;53.112;7.358;2024-01-16T00:38:44;2.47;;;0.90;;
5285;SDS011;2665;53.112;7.358;2024-01-16T00:41:11;1.70;;;0.80;;
5285;SDS011;2665;53.112;7.358;2024-01-16T00:43:40;1.80;;;0.80;;
5285;SDS011;2665;53.112;7.358;2024-01-16T00:46:06;3.20;;;0.67;;
5285;SDS011;2665;53.112;7.358;2024-01-16T00:48:33;2.30;;;0.40;;
5285;SDS011;2665;53.112;7.358;2024-01-16T00:50:59;2.60;;;0.80;;
5285;SDS011;2665;53.112;7.358;2024-01-16T00:53:26;2.13;;;0.77;;
5285;SDS011;2665;53.112;7.358;2024-01-16T00:55:52;1.80;;;0.60;;
5285;SDS011;2665;53.112;7.358;2024-01-16T00:58:19;1.50;;;0.50;;
5285;SDS011;2665;53.112;7.358;2024-01-16T01:00:45;2.73;;;0.80;;
5285;SDS011;2665;53.112;7.358;2024-01-16T01:03:12;3.60;;;0.87;;
5285;SDS011;2665;53.112;7.358;2024-01-16T01:05:38;3.30;;;0.80;;
5285;SDS011;2665;53.112;7.358;2024-01-16T01:08:04;1.73;;;0.50;;
5285;SDS011;2665;53.112;7.358;2024-01-16T01:10:30;6.73;;;0.80;;
5285;SDS011;2665;53.112;7.358;2024-01-16T01:12:56;13.60;;;1.30;;
5285;SDS011;2665;53.112;7.358;2024-01-16T01:15:22;2.60;;;0.70;;
5285;SDS011;2665;53.112;7.358;2024-01-16T01:17:48;2.27;;;0.70;;
5285;SDS011;2665;53.112;7.358;2024-01-16T01:20:15;7.47;;;1.90;;
5285;SDS011;2665;53.112;7.358;2024-01-16T01:22:41;5.17;;;0.87;;
5285;SDS011;2665;53.112;7.358;2024-01-16T01:25:07;1.60;;;0.70;;
5285;SDS011;2665;53.112;7.358;2024-01-16T01:27:33;6.17;;;0.80;;
5285;SDS011;2665;53.112;7.358;2024-01-16T01:29:59;5.87;;;0.60;;
5285;SDS011;2665;53.112;7.358;2024-01-16T01:32:25;1.60;;;0.60;;
5285;SDS011;2665;53.112;7.358;2024-01-16T01:34:52;3.00;;;0.70;;
5285;SDS011;2665;53.112;7.358;2024-01-16T01:37:18;3.60;;;1.37;;
5285;SDS011;2665;53.112;7.358;2024-01-16T01:39:44;8.40;;;0.80;;
5285;SDS011;2665;53.112;7.358;2024-01-16T01:42:10;2.07;;;0.60;;
5285;SDS011;2665;53.112;7.358;2024-01-16T01:44:36;3.90;;;0.73;;
5285;SDS011;2665;53.112;7.358;2024-01-16T01:47:02;2.97;;;1.03;;
5285;SDS011;2665;53.112;7.358;2024-01-16T01:49:30;4.07;;;0.70;;
5285;SDS011;2665;53.112;7.358;2024-01-16T01:51:56;2.90;;;0.50;;
5285;SDS011;2665;53.112;7.358;2024-01-16T01:54:22;2.20;;;0.50;;
5285;SDS011;2665;53.112;7.358;2024-01-16T01:56:48;2.63;;;0.60;;
5285;SDS011;2665;53.112;7.358;2024-01-16T01:59:16;2.20;;;0.70;;
5285;SDS011;2665;53.112;7.358;2024-01-16T02:01:44;3.10;;;0.60;;
5285;SDS011;2665;53.112;7.358;2024-01-16T02:04:12;2.47;;;0.70;;
5285;SDS011;2665;53.112;7.358;2024-01-16T02:06:41;1.77;;;0.60;;
5285;SDS011;2665;53.112;7.358;2024-01-16T02:09:07;3.33;;;0.73;;
5285;SDS011;2665;53.112;7.358;2024-01-16T02:11:33;5.73;;;1.03;;
5285;SDS011;2665;53.112;7.358;2024-01-16T02:13:59;1.80;;;0.80;;
5285;SDS011;2665;53.112;7.358;2024-01-16T02:16:25;3.20;;;0.73;;
5285;SDS011;2665;53.112;7.358;2024-01-16T02:18:51;5.40;;;0.77;;
5285;SDS011;2665;53.112;7.358;2024-01-16T02:21:22;1.53;;;0.60;;
5285;SDS011;2665;53.112;7.358;2024-01-16T02:23:50;2.80;;;0.60;;
5285;SDS011;2665;53.112;7.358;2024-01-16T02:26:17;2.80;;;0.80;;
5285;SDS011;2665;53.112;7.358;2024-01-16T02:28:44;1.80;;;0.60;;
5285;SDS011;2665;53.112;7.358;2024-01-16T02:31:10;2.10;;;0.80;;
5285;SDS011;2665;53.112;7.358;2024-01-16T02:33:36;1.50;;;0.60;;
5285;SDS011;2665;53.112;7.358;2024-01-16T02:36:03;7.27;;;0.97;;
5285;SDS011;2665;53.112;7.358;2024-01-16T02:38:29;2.30;;;0.60;;
5285;SDS011;2665;53.112;7.358;2024-01-16T02:40:55;3.90;;;2.60;;
5285;SDS011;2665;53.112;7.358;2024-01-16T02:43:21;1.87;;;0.70;;
5285;SDS011;2665;53.112;7.358;2024-01-16T02:45:48;1.70;;;0.60;;
5285;SDS011;2665;53.112;7.358;2024-01-16T02:48:14;3.90;;;1.00;;
5285;SDS011;2665;53.112;7.358;2024-01-16T02:50:40;2.03;;;0.80;;
5285;SDS011;2665;53.112;7.358;2024-01-16T02:53:06;2.47;;;0.80;;
5285;SDS011;2665;53.112;7.358;2024-01-16T02:55:32;2.77;;;1.33;;
5285;SDS011;2665;53.112;7.358;2024-01-16T02:57:58;2.43;;;1.10;;
5285;SDS011;2665;53.112;7.358;2024-01-16T03:00:24;1.50;;;0.60;;
5285;SDS011;2665;53.112;7.358;2024-01-16T03:02:50;3.77;;;0.97;;
5285;SDS011;2665;53.112;7.358;2024-01-16T03:05:16;1.80;;;0.50;;
5285;SDS011;2665;53.112;7.358;2024-01-16T03:07:42;2.47;;;1.00;;
5285;SDS011;2665;53.112;7.358;2024-01-16T03:10:08;8.70;;;0.90;;
5285;SDS011;2665;53.112;7.358;2024-01-16T03:12:34;2.27;;;0.80;;
5285;SDS011;2665;53.112;7.358;2024-01-16T03:15:00;1.93;;;0.63;;
5285;SDS011;2665;53.112;7.358;2024-01-16T03:17:26;1.67;;;0.80;;
5285;SDS011;2665;53.112;7.358;2024-01-16T03:19:52;2.23;;;0.80;;
5285;SDS011;2665;53.112;7.358;2024-01-16T03:22:18;4.23;;;0.80;;
5285;SDS011;2665;53.112;7.358;2024-01-16T03:24:44;2.03;;;0.90;;
5285;SDS011;2665;53.112;7.358;2024-01-16T03:27:11;3.60;;;0.80;;
5285;SDS011;2665;53.112;7.358;2024-01-16T03:29:37;3.63;;;1.10;;
5285;SDS011;2665;53.112;7.358;2024-01-16T03:32:03;6.70;;;1.67;;
5285;SDS011;2665;53.112;7.358;2024-01-16T03:34:30;2.87;;;1.00;;
5285;SDS011;2665;53.112;7.358;2024-01-16T03:36:59;3.37;;;0.70;;
5285;SDS011;2665;53.112;7.358;2024-01-16T03:39:25;3.00;;;0.70;;
5285;SDS011;2665;53.112;7.358;2024-01-16T03:41:51;3.00;;;0.70;;
5285;SDS011;2665;53.112;7.358;2024-01-16T03:44:17;1.50;;;0.60;;
5285;SDS011;2665;53.112;7.358;2024-01-16T03:46:43;4.93;;;0.73;;
5285;SDS011;2665;53.112;7.358;2024-01-16T03:49:09;3.10;;;1.00;;
5285;SDS011;2665;53.112;7.358;2024-01-16T03:51:35;1.60;;;0.70;;
5285;SDS011;2665;53.112;7.358;2024-01-16T03:54:01;4.33;;;2.57;;
5285;SDS011;2665;53.112;7.358;2024-01-16T03:56:28;2.63;;;0.80;;
5285;SDS011;2665;53.112;7.358;2024-01-16T03:58:54;2.00;;;0.80;;
5285;SDS011;2665;53.112;7.358;2024-01-16T04:01:29;2.50;;;0.80;;
5285;SDS011;2665;53.112;7.358;2024-01-16T04:03:55;5.93;;;1.03;;
5285;SDS011;2665;53.112;7.358;2024-01-16T04:06:21;5.50;;;0.73;;
5285;SDS011;2665;53.112;7.358;2024-01-16T04:08:47;1.87;;;0.70;;
5285;SDS011;2665;53.112;7.358;2024-01-16T04:11:14;2.20;;;0.83;;
5285;SDS011;2665;53.112;7.358;2024-01-16T04:13:40;2.97;;;0.50;;
5285;SDS011;2665;53.112;7.358;2024-01-16T04:16:07;1.53;;;0.47;;
5285;SDS011;2665;53.112;7.358;2024-01-16T04:18:36;1.70;;;0.60;;
5285;SDS011;2665;53.112;7.358;2024-01-16T04:21:03;1.80;;;0.67;;
5285;SDS011;2665;53.112;7.358;2024-01-16T04:23:29;2.43;;;1.17;;
5285;SDS011;2665;53.112;7.358;2024-01-16T04:25:55;1.80;;;0.70;;
5285;SDS011;2665;53.112;7.358;2024-01-16T04:28:21;4.07;;;0.90;;
5285;SDS011;2665;53.112;7.358;2024-01-16T04:30:47;1.60;;;0.50;;
5285;SDS011;2665;53.112;7.358;2024-01-16T04:33:13;2.10;;;0.57;;
5285;SDS011;2665;53.112;7.358;2024-01-16T04:35:39;1.60;;;0.60;;
5285;SDS011;2665;53.112;7.358;2024-01-16T04:38:05;13.50;;;0.80;;
5285;SDS011;2665;53.112;7.358;2024-01-16T04:40:32;6.90;;;0.83;;
5285;SDS011;2665;53.112;7.358;2024-01-16T04:42:59;3.30;;;0.70;;
5285;SDS011;2665;53.112;7.358;2024-01-16T04:45:25;1.50;;;0.57;;
5285;SDS011;2665;53.112;7.358;2024-01-16T04:47:51;1.73;;;0.50;;
5285;SDS011;2665;53.112;7.358;2024-01-16T04:50:18;5.80;;;0.90;;
5285;SDS011;2665;53.112;7.358;2024-01-16T04:52:44;1.60;;;0.60;;
5285;SDS011;2665;53.112;7.358;2024-01-16T04:55:10;4.90;;;0.87;;
5285;SDS011;2665;53.112;7.358;2024-01-16T04:57:36;4.33;;;0.87;;
5285;SDS011;2665;53.112;7.358;2024-01-16T05:00:02;8.63;;;1.10;;
5285;SDS011;2665;53.112;7.358;2024-01-16T05:02:31;1.73;;;0.70;;
5285;SDS011;2665;53.112;7.358;2024-01-16T05:04:58;1.60;;;0.60;;
5285;SDS011;2665;53.112;7.358;2024-01-16T05:07:24;4.20;;;1.00;;
5285;SDS011;2665;53.112;7.358;2024-01-16T05:09:51;1.60;;;0.70;;
5285;SDS011;2665;53.112;7.358;2024-01-16T05:12:17;6.53;;;1.00;;
5285;SDS011;2665;53.112;7.358;2024-01-16T05:14:43;6.30;;;0.63;;
5285;SDS011;2665;53.112;7.358;2024-01-16T05:17:09;2.50;;;0.60;;
5285;SDS011;2665;53.112;7.358;2024-01-16T05:19:35;5.23;;;0.60;;
5285;SDS011;2665;53.112;7.358;2024-01-16T05:22:01;2.47;;;1.10;;
5285;SDS011;2665;53.112;7.358;2024-01-16T05:24:29;2.00;;;0.80;;
5285;SDS011;2665;53.112;7.358;2024-01-16T05:26:55;2.73;;;1.00;;
5285;SDS011;2665;53.112;7.358;2024-01-16T05:29:21;1.83;;;0.90;;
5285;SDS011;2665;53.112;7.358;2024-01-16T05:31:47;2.00;;;0.60;;
5285;SDS011;2665;53.112;7.358;2024-01-16T05:34:13;2.83;;;0.80;;
5285;SDS011;2665;53.112;7.358;2024-01-16T05:36:40;1.50;;;0.50;;
5285;SDS011;2665;53.112;7.358;2024-01-16T05:39:06;5.83;;;1.37;;
5285;SDS011;2665;53.112;7.358;2024-01-16T05:41:33;1.90;;;0.60;;
5285;SDS011;2665;53.112;7.358;2024-01-16T05:44:00;4.60;;;1.17;;
5285;SDS011;2665;53.112;7.358;2024-01-16T05:46:30;8.07;;;1.20;;
5285;SDS011;2665;53.112;7.358;2024-01-16T05:48:56;5.10;;;1.47;;
5285;SDS011;2665;53.112;7.358;2024-01-16T05:51:23;2.70;;;0.70;;
5285;SDS011;2665;53.112;7.358;2024-01-16T05:53:49;2.77;;;0.80;;
5285;SDS011;2665;53.112;7.358;2024-01-16T05:56:15;2.13;;;0.80;;
5285;SDS011;2665;53.112;7.358;2024-01-16T05:58:41;4.90;;;1.40;;
5285;SDS011;2665;53.112;7.358;2024-01-16T06:01:07;3.73;;;0.93;;
5285;SDS011;2665;53.112;7.358;2024-01-16T06:03:33;2.43;;;1.23;;
5285;SDS011;2665;53.112;7.358;2024-01-16T06:05:59;2.03;;;0.60;;
5285;SDS011;2665;53.112;7.358;2024-01-16T06:08:25;5.40;;;1.00;;
5285;SDS011;2665;53.112;7.358;2024-01-16T06:10:51;2.27;;;0.70;;
5285;SDS011;2665;53.112;7.358;2024-01-16T06:13:18;2.20;;;0.70;;
5285;SDS011;2665;53.112;7.358;2024-01-16T06:15:44;1.60;;;0.70;;
5285;SDS011;2665;53.112;7.358;2024-01-16T06:18:10;3.03;;;0.80;;
5285;SDS011;2665;53.112;7.358;2024-01-16T06:20:36;4.37;;;1.00;;
5285;SDS011;2665;53.112;7.358;2024-01-16T06:23:02;4.80;;;0.70;;
5285;SDS011;2665;53.112;7.358;2024-01-16T06:25:28;7.53;;;0.80;;
5285;SDS011;2665;53.112;7.358;2024-01-16T06:27:54;3.57;;;1.30;;
5285;SDS011;2665;53.112;7.358;2024-01-16T06:30:21;2.27;;;0.90;;
5285;SDS011;2665;53.112;7.358;2024-01-16T06:32:50;1.70;;;0.53;;
5285;SDS011;2665;53.112;7.358;2024-01-16T06:35:16;10.03;;;1.37;;
5285;SDS011;2665;53.112;7.358;2024-01-16T06:37:43;1.97;;;0.90;;
5285;SDS011;2665;53.112;7.358;2024-01-16T06:40:09;3.50;;;0.70;;
5285;SDS011;2665;53.112;7.358;2024-01-16T06:42:35;1.57;;;0.60;;
5285;SDS011;2665;53.112;7.358;2024-01-16T06:45:01;2.47;;;1.33;;
5285;SDS011;2665;53.112;7.358;2024-01-16T06:47:27;3.27;;;0.90;;
5285;SDS011;2665;53.112;7.358;2024-01-16T06:49:54;1.50;;;0.60;;
5285;SDS011;2665;53.112;7.358;2024-01-16T06:52:20;3.27;;;0.60;;
5285;SDS011;2665;53.112;7.358;2024-01-16T06:54:46;1.40;;;0.50;;
5285;SDS011;2665;53.112;7.358;2024-01-16T06:57:12;2.30;;;1.30;;
5285;SDS011;2665;53.112;7.358;2024-01-16T06:59:38;2.00;;;0.77;;
5285;SDS011;2665;53.112;7.358;2024-01-16T07:02:04;5.00;;;2.30;;
5285;SDS011;2665;53.112;7.358;2024-01-16T07:04:30;7.37;;;1.17;;
5285;SDS011;2665;53.112;7.358;2024-01-16T07:06:57;1.97;;;0.70;;
5285;SDS011;2665;53.112;7.358;2024-01-16T07:09:24;1.97;;;0.70;;
5285;SDS011;2665;53.112;7.358;2024-01-16T07:11:50;2.57;;;0.73;;
5285;SDS011;2665;53.112;7.358;2024-01-16T07:14:17;1.60;;;0.50;;
5285;SDS011;2665;53.112;7.358;2024-01-16T07:16:43;1.40;;;0.50;;
5285;SDS011;2665;53.112;7.358;2024-01-16T07:19:09;3.50;;;0.80;;
5285;SDS011;2665;53.112;7.358;2024-01-16T07:21:36;5.80;;;1.00;;
5285;SDS011;2665;53.112;7.358;2024-01-16T07:24:03;3.93;;;1.00;;
5285;SDS011;2665;53.112;7.358;2024-01-16T07:26:29;2.43;;;1.00;;
5285;SDS011;2665;53.112;7.358;2024-01-16T07:28:55;2.00;;;0.63;;
5285;SDS011;2665;53.112;7.358;2024-01-16T07:31:21;2.83;;;0.60;;
5285;SDS011;2665;53.112;7.358;2024-01-16T07:33:47;3.67;;;1.10;;
5285;SDS011;2665;53.112;7.358;2024-01-16T07:36:14;1.60;;;0.50;;
5285;SDS011;2665;53.112;7.358;2024-01-16T07:38:40;2.00;;;0.67;;
5285;SDS011;2665;53.112;7.358;2024-01-16T07:41:06;5.53;;;0.93;;
5285;SDS011;2665;53.112;7.358;2024-01-16T07:43:32;1.50;;;0.53;;
5285;SDS011;2665;53.112;7.358;2024-01-16T07:45:59;1.83;;;0.70;;
5285;SDS011;2665;53.112;7.358;2024-01-16T07:48:25;6.53;;;1.90;;
5285;SDS011;2665;53.112;7.358;2024-01-16T07:50:51;1.70;;;0.50;;
5285;SDS011;2665;53.112;7.358;2024-01-16T07:53:17;3.10;;;0.73;;
5285;SDS011;2665;53.112;7.358;2024-01-16T07:55:43;2.47;;;0.80;;
5285;SDS011;2665;53.112;7.358;2024-01-16T07:58:12;1.93;;;0.70;;
5285;SDS011;2665;53.112;7.358;2024-01-16T08:00:39;3.90;;;0.80;;
5285;SDS011;2665;53.112;7.358;2024-01-16T08:03:07;8.40;;;1.33;;
5285;SDS011;2665;53.112;7.358;2024-01-16T08:05:33;3.60;;;0.67;;
5285;SDS011;2665;53.112;7.358;2024-01-16T08:07:59;1.67;;;0.80;;
5285;SDS011;2665;53.112;7.358;2024-01-16T08:10:25;4.23;;;0.80;;
5285;SDS011;2665;53.112;7.358;2024-01-16T08:12:51;3.53;;;0.93;;
5285;SDS011;2665;53.112;7.358;2024-01-16T08:15:17;15.17;;;1.17;;
5285;SDS011;2665;53.112;7.358;2024-01-16T08:17:43;5.77;;;1.00;;
5285;SDS011;2665;53.112;7.358;2024-01-16T08:20:09;6.30;;;1.27;;
5285;SDS011;2665;53.112;7.358;2024-01-16T08:22:36;3.07;;;0.70;;
5285;SDS011;2665;53.112;7.358;2024-01-16T08:25:02;10.93;;;1.10;;
5285;SDS011;2665;53.112;7.358;2024-01-16T08:27:32;2.90;;;0.90;;
5285;SDS011;2665;53.112;7.358;2024-01-16T08:29:58;3.40;;;0.97;;
5285;SDS011;2665;53.112;7.358;2024-01-16T08:32:24;3.17;;;1.13;;
5285;SDS011;2665;53.112;7.358;2024-01-16T08:34:50;2.80;;;0.93;;
5285;SDS011;2665;53.112;7.358;2024-01-16T08:37:17;5.13;;;1.00;;
5285;SDS011;2665;53.112;7.358;2024-01-16T08:39:43;2.80;;;1.20;;
5285;SDS011;2665;53.112;7.358;2024-01-16T08:42:09;2.53;;;0.93;;
5285;SDS011;2665;53.112;7.358;2024-01-16T08:44:37;2.20;;;1.00;;
5285;SDS011;2665;53.112;7.358;2024-01-16T08:47:04;2.10;;;0.97;;
5285;SDS011;2665;53.112;7.358;2024-01-16T08:49:31;7.53;;;1.10;;
5285;SDS011;2665;53.112;7.358;2024-01-16T08:51:58;2.53;;;1.27;;
5285;SDS011;2665;53.112;7.358;2024-01-16T08:54:24;2.63;;;1.00;;
5285;SDS011;2665;53.112;7.358;2024-01-16T08:56:51;2.37;;;1.00;;
5285;SDS011;2665;53.112;7.358;2024-01-16T08:59:17;2.47;;;1.03;;
5285;SDS011;2665;53.112;7.358;2024-01-16T09:01:43;3.33;;;1.30;;
5285;SDS011;2665;53.112;7.358;2024-01-16T09:04:09;9.97;;;1.40;;
5285;SDS011;2665;53.112;7.358;2024-01-16T09:06:35;2.03;;;1.20;;
5285;SDS011;2665;53.112;7.358;2024-01-16T09:09:01;2.93;;;1.23;;
5285;SDS011;2665;53.112;7.358;2024-01-16T09:11:30;2.63;;;1.33;;
5285;SDS011;2665;53.112;7.358;2024-01-16T09:13:56;4.30;;;1.93;;
5285;SDS011;2665;53.112;7.358;2024-01-16T09:16:23;4.20;;;2.17;;
5285;SDS011;2665;53.112;7.358;2024-01-16T09:18:49;3.30;;;1.60;;
5285;SDS011;2665;53.112;7.358;2024-01-16T09:21:15;4.33;;;1.50;;
5285;SDS011;2665;53.112;7.358;2024-01-16T09:23:41;3.27;;;2.10;;
5285;SDS011;2665;53.112;7.358;2024-01-16T09:26:07;3.70;;;1.83;;
5285;SDS011;2665;53.112;7.358;2024-01-16T09:28:33;2.97;;;2.30;;
5285;SDS011;2665;53.112;7.358;2024-01-16T09:30:59;3.73;;;1.80;;
5285;SDS011;2665;53.112;7.358;2024-01-16T09:33:25;4.00;;;1.73;;
5285;SDS011;2665;53.112;7.358;2024-01-16T09:35:52;4.03;;;1.83;;
5285;SDS011;2665;53.112;7.358;2024-01-16T09:38:18;6.00;;;2.47;;
5285;SDS011;2665;53.112;7.358;2024-01-16T09:40:44;2.63;;;1.80;;
5285;SDS011;2665;53.112;7.358;2024-01-16T09:43:11;6.00;;;2.23;;
5285;SDS011;2665;53.112;7.358;2024-01-16T09:45:37;5.33;;;2.47;;
5285;SDS011;2665;53.112;7.358;2024-01-16T09:48:04;6.17;;;1.67;;
5285;SDS011;2665;53.112;7.358;2024-01-16T09:50:31;7.00;;;2.20;;
5285;SDS011;2665;53.112;7.358;2024-01-16T09:52:57;7.00;;;3.33;;
5285;SDS011;2665;53.112;7.358;2024-01-16T09:55:23;2.90;;;1.37;;
5285;SDS011;2665;53.112;7.358;2024-01-16T09:57:51;4.13;;;1.77;;
5285;SDS011;2665;53.112;7.358;2024-01-16T10:00:18;3.57;;;1.70;;
5285;SDS011;2665;53.112;7.358;2024-01-16T10:02:44;2.93;;;1.90;;
5285;SDS011;2665;53.112;7.358;2024-01-16T10:05:11;8.43;;;1.90;;
5285;SDS011;2665;53.112;7.358;2024-01-16T10:07:38;3.43;;;1.67;;
5285;SDS011;2665;53.112;7.358;2024-01-16T10:10:04;7.43;;;1.90;;
5285;SDS011;2665;53.112;7.358;2024-01-16T10:12:31;3.40;;;1.50;;
5285;SDS011;2665;53.112;7.358;2024-01-16T10:14:57;4.40;;;1.93;;
5285;SDS011;2665;53.112;7.358;2024-01-16T10:17:37;3.10;;;2.13;;
5285;SDS011;2665;53.112;7.358;2024-01-16T10:20:03;4.60;;;1.87;;
5285;SDS011;2665;53.112;7.358;2024-01-16T10:22:29;4.87;;;2.17;;
5285;SDS011;2665;53.112;7.358;2024-01-16T10:25:11;3.80;;;2.17;;
5285;SDS011;2665;53.112;7.358;2024-01-16T10:27:41;9.20;;;2.10;;
5285;SDS011;2665;53.112;7.358;2024-01-16T10:30:07;3.07;;;1.90;;
5285;SDS011;2665;53.112;7.358;2024-01-16T10:32:35;7.73;;;2.07;;
5285;SDS011;2665;53.112;7.358;2024-01-16T10:35:06;11.03;;;2.43;;
5285;SDS011;2665;53.112;7.358;2024-01-16T10:40:22;3.50;;;1.90;;
5285;SDS011;2665;53.112;7.358;2024-01-16T10:42:58;4.33;;;1.90;;
5285;SDS011;2665;53.112;7.358;2024-01-16T10:45:25;7.60;;;2.47;;
5285;SDS011;2665;53.112;7.358;2024-01-16T10:48:04;3.53;;;1.90;;
5285;SDS011;2665;53.112;7.358;2024-01-16T10:50:33;5.83;;;1.80;;
5285;SDS011;2665;53.112;7.358;2024-01-16T10:53:00;4.90;;;2.20;;
5285;SDS011;2665;53.112;7.358;2024-01-16T10:55:29;7.43;;;1.97;;
5285;SDS011;2665;53.112;7.358;2024-01-16T10:57:58;3.27;;;1.90;;
5285;SDS011;2665;53.112;7.358;2024-01-16T11:00:25;4.23;;;1.50;;
5285;SDS011;2665;53.112;7.358;2024-01-16T11:02:58;4.67;;;1.47;;
5285;SDS011;2665;53.112;7.358;2024-01-16T11:05:25;3.03;;;1.60;;
5285;SDS011;2665;53.112;7.358;2024-01-16T11:07:55;2.73;;;1.93;;
5285;SDS011;2665;53.112;7.358;2024-01-16T11:10:21;3.50;;;1.67;;
5285;SDS011;2665;53.112;7.358;2024-01-16T11:12:49;10.60;;;2.50;;
5285;SDS011;2665;53.112;7.358;2024-01-16T11:15:17;5.17;;;2.40;;
5285;SDS011;2665;53.112;7.358;2024-01-16T11:17:46;3.57;;;2.00;;
5285;SDS011;2665;53.112;7.358;2024-01-16T11:20:12;6.23;;;3.20;;
5285;SDS011;2665;53.112;7.358;2024-01-16T11:22:41;6.07;;;2.20;;
5285;SDS011;2665;53.112;7.358;2024-01-16T11:25:11;4.43;;;2.53;;
5285;SDS011;2665;53.112;7.358;2024-01-16T11:27:38;4.13;;;2.17;;
5285;SDS011;2665;53.112;7.358;2024-01-16T11:30:05;3.40;;;1.90;;
5285;SDS011;2665;53.112;7.358;2024-01-16T11:32:35;6.67;;;2.47;;
5285;SDS011;2665;53.112;7.358;2024-01-16T11:35:05;4.03;;;2.90;;
5285;SDS011;2665;53.112;7.358;2024-01-16T11:37:31;4.93;;;2.50;;
5285;SDS011;2665;53.112;7.358;2024-01-16T11:42:46;4.07;;;2.77;;
5285;SDS011;2665;53.112;7.358;2024-01-16T11:50:42;6.63;;;2.70;;
5285;SDS011;2665;53.112;7.358;2024-01-16T11:53:10;6.53;;;2.23;;
5285;SDS011;2665;53.112;7.358;2024-01-16T11:55:49;4.23;;;2.20;;
5285;SDS011;2665;53.112;7.358;2024-01-16T12:00:58;5.27;;;2.40;;
5285;SDS011;2665;53.112;7.358;2024-01-16T12:03:24;3.50;;;2.00;;
5285;SDS011;2665;53.112;7.358;2024-01-16T12:05:57;3.57;;;2.00;;
5285;SDS011;2665;53.112;7.358;2024-01-16T12:08:23;6.97;;;2.90;;
5285;SDS011;2665;53.112;7.358;2024-01-16T12:10:49;4.20;;;2.57;;
5285;SDS011;2665;53.112;7.358;2024-01-16T12:13:15;2.70;;;2.00;;
5285;SDS011;2665;53.112;7.358;2024-01-16T12:15:42;7.20;;;2.37;;
5285;SDS011;2665;53.112;7.358;2024-01-16T12:18:08;4.83;;;1.47;;
5285;SDS011;2665;53.112;7.358;2024-01-16T12:20:38;4.47;;;2.00;;
5285;SDS011;2665;53.112;7.358;2024-01-16T12:23:05;2.83;;;1.67;;
5285;SDS011;2665;53.112;7.358;2024-01-16T12:25:32;2.67;;;1.63;;
5285;SDS011;2665;53.112;7.358;2024-01-16T12:27:59;6.00;;;1.47;;
5285;SDS011;2665;53.112;7.358;2024-01-16T12:30:32;2.90;;;1.40;;
5285;SDS011;2665;53.112;7.358;2024-01-16T12:33:08;3.47;;;1.70;;
5285;SDS011;2665;53.112;7.358;2024-01-16T12:35:38;2.93;;;1.23;;
5285;SDS011;2665;53.112;7.358;2024-01-16T12:38:05;6.53;;;1.43;;
5285;SDS011;2665;53.112;7.358;2024-01-16T12:40:31;2.03;;;0.90;;
5285;SDS011;2665;53.112;7.358;2024-01-16T12:42:58;2.03;;;0.90;;
5285;SDS011;2665;53.112;7.358;2024-01-16T12:45:24;4.63;;;1.73;;
5285;SDS011;2665;53.112;7.358;2024-01-16T12:47:51;2.00;;;0.93;;
5285;SDS011;2665;53.112;7.358;2024-01-16T12:50:21;3.43;;;0.90;;
5285;SDS011;2665;53.112;7.358;2024-01-16T12:53:00;2.23;;;0.90;;
5285;SDS011;2665;53.112;7.358;2024-01-16T12:55:26;1.90;;;0.70;;
5285;SDS011;2665;53.112;7.358;2024-01-16T13:00:37;2.50;;;1.43;;
5285;SDS011;2665;53.112;7.358;2024-01-16T13:03:04;3.50;;;0.87;;
5285;SDS011;2665;53.112;7.358;2024-01-16T13:05:30;2.43;;;0.90;;
5285;SDS011;2665;53.112;7.358;2024-01-16T13:08:03;1.90;;;1.00;;
5285;SDS011;2665;53.112;7.358;2024-01-16T13:10:30;1.80;;;0.80;;
5285;SDS011;2665;53.112;7.358;2024-01-16T13:13:16;2.43;;;0.70;;
5285;SDS011;2665;53.112;7.358;2024-01-16T13:15:42;5.07;;;1.90;;
5285;SDS011;2665;53.112;7.358;2024-01-16T13:18:22;2.20;;;0.83;;
5285;SDS011;2665;53.112;7.358;2024-01-16T13:20:52;2.60;;;0.93;;
5285;SDS011;2665;53.112;7.358;2024-01-16T13:23:18;2.40;;;0.97;;
5285;SDS011;2665;53.112;7.358;2024-01-16T13:25:45;1.80;;;0.90;;
5285;SDS011;2665;53.112;7.358;2024-01-16T13:28:12;8.63;;;1.77;;
5285;SDS011;2665;53.112;7.358;2024-01-16T13:30:39;2.60;;;1.40;;
5285;SDS011;2665;53.112;7.358;2024-01-16T13:33:06;8.37;;;1.10;;
5285;SDS011;2665;53.112;7.358;2024-01-16T13:35:33;6.63;;;1.20;;
5285;SDS011;2665;53.112;7.358;2024-01-16T13:38:01;7.27;;;0.93;;
5285;SDS011;2665;53.112;7.358;2024-01-16T13:40:29;4.27;;;1.27;;
5285;SDS011;2665;53.112;7.358;2024-01-16T13:42:55;3.13;;;1.20;;
5285;SDS011;2665;53.112;7.358;2024-01-16T13:45:21;2.00;;;1.10;;
5285;SDS011;2665;53.112;7.358;2024-01-16T13:47:48;3.03;;;1.17;;
5285;SDS011;2665;53.112;7.358;2024-01-16T13:50:14;3.73;;;1.60;;
5285;SDS011;2665;53.112;7.358;2024-01-16T13:52:40;4.70;;;1.57;;
5285;SDS011;2665;53.112;7.358;2024-01-16T13:55:06;2.73;;;1.40;;
5285;SDS011;2665;53.112;7.358;2024-01-16T13:57:33;2.87;;;1.50;;
5285;SDS011;2665;53.112;7.358;2024-01-16T14:00:02;3.70;;;2.10;;
5285;SDS011;2665;53.112;7.358;2024-01-16T14:02:29;3.63;;;2.00;;
5285;SDS011;2665;53.112;7.358;2024-01-16T14:04:55;8.83;;;1.77;;
5285;SDS011;2665;53.112;7.358;2024-01-16T14:07:21;5.13;;;1.90;;
5285;SDS011;2665;53.112;7.358;2024-01-16T14:09:47;8.90;;;2.27;;
5285;SDS011;2665;53.112;7.358;2024-01-16T14:12:14;7.23;;;2.37;;
5285;SDS011;2665;53.112;7.358;2024-01-16T14:14:40;6.00;;;2.70;;
5285;SDS011;2665;53.112;7.358;2024-01-16T14:17:07;11.03;;;2.60;;
5285;SDS011;2665;53.112;7.358;2024-01-16T14:19:36;4.10;;;2.20;;
5285;SDS011;2665;53.112;7.358;2024-01-16T14:22:03;3.87;;;2.00;;
5285;SDS011;2665;53.112;7.358;2024-01-16T14:24:29;4.93;;;2.60;;
5285;SDS011;2665;53.112;7.358;2024-01-16T14:26:55;4.33;;;2.77;;
5285;SDS011;2665;53.112;7.358;2024-01-16T14:29:24;4.47;;;3.40;;
5285;SDS011;2665;53.112;7.358;2024-01-16T14:31:52;3.37;;;2.30;;
5285;SDS011;2665;53.112;7.358;2024-01-16T14:34:20;5.47;;;2.70;;
5285;SDS011;2665;53.112;7.358;2024-01-16T14:36:48;3.60;;;2.00;;
5285;SDS011;2665;53.112;7.358;2024-01-16T14:39:14;5.50;;;3.00;;
5285;SDS011;2665;53.112;7.358;2024-01-16T14:41:46;3.67;;;2.20;;
5285;SDS011;2665;53.112;7.358;2024-01-16T14:44:13;3.77;;;2.30;;
5285;SDS011;2665;53.112;7.358;2024-01-16T14:46:43;3.97;;;2.70;;
5285;SDS011;2665;53.112;7.358;2024-01-16T14:49:09;9.50;;;3.23;;
5285;SDS011;2665;53.112;7.358;2024-01-16T14:51:36;6.80;;;2.27;;
5285;SDS011;2665;53.112;7.358;2024-01-16T14:54:02;4.03;;;2.60;;
5285;SDS011;2665;53.112;7.358;2024-01-16T14:56:30;9.30;;;2.53;;
5285;SDS011;2665;53.112;7.358;2024-01-16T14:58:56;7.10;;;2.77;;
5285;SDS011;2665;53.112;7.358;2024-01-16T15:01:23;6.40;;;2.40;;
5285;SDS011;2665;53.112;7.358;2024-01-16T15:03:49;4.47;;;2.30;;
5285;SDS011;2665;53.112;7.358;2024-01-16T15:06:15;9.40;;;3.47;;
5285;SDS011;2665;53.112;7.358;2024-01-16T15:08:42;8.57;;;1.80;;
5285;SDS011;2665;53.112;7.358;2024-01-16T15:11:08;9.73;;;2.77;;
5285;SDS011;2665;53.112;7.358;2024-01-16T15:13:35;3.87;;;1.67;;
5285;SDS011;2665;53.112;7.358;2024-01-16T15:16:02;5.67;;;2.03;;
5285;SDS011;2665;53.112;7.358;2024-01-16T15:18:29;3.00;;;1.70;;
5285;SDS011;2665;53.112;7.358;2024-01-16T15:20:55;2.93;;;1.70;;
5285;SDS011;2665;53.112;7.358;2024-01-16T15:23:21;3.50;;;1.60;;
5285;SDS011;2665;53.112;7.358;2024-01-16T15:25:50;4.90;;;2.57;;
5285;SDS011;2665;53.112;7.358;2024-01-16T15:28:16;6.23;;;2.23;;
5285;SDS011;2665;53.112;7.358;2024-01-16T15:30:42;4.80;;;1.87;;